createdAt,value
2023-02-13T00:00:23.719Z,10.17
2023-02-13T00:02:25.749Z,9.93
2023-02-13T00:04:27.785Z,9.98
2023-02-13T00:06:29.743Z,10.07
2023-02-13T00:08:31.778Z,9.90
2023-02-13T00:10:33.727Z,9.67
2023-02-13T00:12:36.023Z,9.62
2023-02-13T00:14:39.649Z,9.62
2023-02-13T00:16:41.604Z,9.55
2023-02-13T00:18:43.553Z,9.57
2023-02-13T00:20:46.203Z,9.58
2023-02-13T00:22:48.173Z,9.65
2023-02-13T00:24:51.761Z,9.71
2023-02-13T00:26:53.816Z,9.89
2023-02-13T00:28:57.137Z,9.84
2023-02-13T00:31:04.480Z,9.72
2023-02-13T00:33:06.609Z,9.79
2023-02-13T00:35:08.657Z,9.76
2023-02-13T00:37:10.633Z,9.73
2023-02-13T00:39:12.774Z,9.79
2023-02-13T00:41:16.746Z,9.75
2023-02-13T00:43:20.334Z,9.64
2023-02-13T00:45:22.431Z,9.73
2023-02-13T00:47:24.380Z,9.63
2023-02-13T00:49:26.337Z,9.67
2023-02-13T00:51:28.428Z,9.70
2023-02-13T00:53:31.051Z,9.64
2023-02-13T00:55:34.181Z,9.74
2023-02-13T00:57:36.183Z,9.63
2023-02-13T00:59:38.131Z,9.67
2023-02-13T01:01:40.265Z,9.57
2023-02-13T01:03:42.486Z,9.65
2023-02-13T01:05:45.307Z,9.63
2023-02-13T01:07:47.380Z,9.66
2023-02-13T01:09:49.332Z,9.50
2023-02-13T01:11:51.296Z,9.46
2023-02-13T01:13:53.248Z,9.55
2023-02-13T01:15:55.379Z,9.48
2023-02-13T01:17:57.675Z,9.48
2023-02-13T01:19:59.640Z,9.44
2023-02-13T01:22:01.687Z,9.64
2023-02-13T01:24:05.304Z,9.52
2023-02-13T01:26:09.423Z,9.53
2023-02-13T01:28:11.418Z,9.62
2023-02-13T01:30:14.965Z,9.65
2023-02-13T01:32:17.048Z,9.63
2023-02-13T01:34:19.393Z,9.57
2023-02-13T01:36:21.362Z,9.59
2023-02-13T01:38:23.364Z,9.44
2023-02-13T01:40:25.329Z,9.44
2023-02-13T01:42:30.452Z,9.34
2023-02-13T01:44:38.672Z,9.44
2023-02-13T01:46:44.233Z,9.56
2023-02-13T01:48:48.542Z,9.31
2023-02-13T01:50:57.762Z,9.31
2023-02-13T01:53:05.931Z,9.41
2023-02-13T01:55:10.935Z,9.40
2023-02-13T01:57:19.219Z,9.23
2023-02-13T01:59:27.268Z,9.37
2023-02-13T02:01:30.914Z,9.13
2023-02-13T02:03:40.269Z,9.19
2023-02-13T02:05:43.348Z,9.24
2023-02-13T02:07:46.282Z,9.15
2023-02-13T02:09:48.942Z,9.09
2023-02-13T02:11:56.579Z,9.10
2023-02-13T02:13:59.156Z,9.13
2023-02-13T02:16:01.557Z,9.13
2023-02-13T02:18:03.829Z,9.04
2023-02-13T02:20:10.659Z,9.18
2023-02-13T02:22:16.192Z,9.21
2023-02-13T02:24:28.049Z,9.20
2023-02-13T02:26:36.221Z,9.17
2023-02-13T02:28:41.603Z,9.28
2023-02-13T02:30:56.097Z,9.20
2023-02-13T02:33:04.563Z,9.28
2023-02-13T02:35:10.298Z,9.24
2023-02-13T02:37:14.103Z,9.17
2023-02-13T02:39:25.198Z,9.16
2023-02-13T02:41:42.429Z,9.33
2023-02-13T02:43:47.930Z,9.23
2023-02-13T02:46:01.655Z,9.16
2023-02-13T02:48:11.883Z,9.27
2023-02-13T02:50:20.509Z,9.15
2023-02-13T02:52:31.762Z,9.19
2023-02-13T02:54:46.925Z,9.17
2023-02-13T02:56:50.582Z,9.24
2023-02-13T02:59:02.029Z,9.18
2023-02-13T03:01:13.169Z,9.18
2023-02-13T03:03:22.183Z,9.19
2023-02-13T03:05:33.048Z,9.23
2023-02-13T03:07:34.790Z,9.32
2023-02-13T03:09:43.886Z,9.27
2023-02-13T03:11:53.059Z,9.26
2023-02-13T03:13:55.860Z,9.38
2023-02-13T03:16:03.603Z,9.47
2023-02-13T03:18:09.065Z,9.28
2023-02-13T03:20:18.644Z,9.29
2023-02-13T03:22:26.913Z,9.29
2023-02-13T03:24:35.818Z,9.29
2023-02-13T03:26:44.507Z,9.29
2023-02-13T03:28:53.057Z,9.09
2023-02-13T03:30:59.380Z,9.18
2023-02-13T03:33:07.729Z,9.19
2023-02-13T03:35:23.414Z,9.29
2023-02-13T03:37:34.760Z,9.38
2023-02-13T03:39:40.192Z,9.38
2023-02-13T03:41:52.987Z,9.36
2023-02-13T03:43:59.535Z,9.36
2023-02-13T03:46:03.592Z,9.33
2023-02-13T03:48:28.785Z,9.28
2023-02-13T03:50:30.885Z,9.29
2023-02-13T03:52:37.379Z,9.36
2023-02-13T03:54:49.340Z,9.18
2023-02-13T03:56:55.805Z,9.33
2023-02-13T03:59:02.556Z,9.34
2023-02-13T04:01:08.430Z,9.39
2023-02-13T04:03:13.810Z,9.44
2023-02-13T04:05:21.549Z,9.46
2023-02-13T04:07:29.138Z,9.51
2023-02-13T04:09:34.142Z,9.50
2023-02-13T04:11:39.487Z,9.35
2023-02-13T04:13:47.758Z,9.40
2023-02-13T04:15:56.345Z,9.40
2023-02-13T04:18:08.168Z,9.42
2023-02-13T04:20:12.270Z,9.43
2023-02-13T04:22:14.716Z,9.34
2023-02-13T04:24:16.667Z,9.37
2023-02-13T04:26:22.855Z,9.33
2023-02-13T04:28:24.832Z,9.39
2023-02-13T04:30:26.923Z,9.12
2023-02-13T04:32:29.276Z,9.29
2023-02-13T04:34:31.309Z,9.13
2023-02-13T04:36:33.261Z,9.13
2023-02-13T04:38:35.157Z,9.22
2023-02-13T04:40:37.129Z,9.24
2023-02-13T04:42:39.291Z,9.18
2023-02-13T04:44:41.334Z,9.19
2023-02-13T04:46:43.265Z,9.21
2023-02-13T04:48:45.179Z,9.09
2023-02-13T04:50:48.170Z,9.17
2023-02-13T04:52:55.686Z,9.25
2023-02-13T04:54:57.748Z,9.24
2023-02-13T04:56:59.781Z,9.19
2023-02-13T04:59:01.800Z,9.17
2023-02-13T05:01:11.197Z,9.22
2023-02-13T05:03:14.091Z,9.17
2023-02-13T05:05:16.307Z,9.30
2023-02-13T05:07:18.195Z,9.36
2023-02-13T05:09:20.260Z,9.21
2023-02-13T05:11:22.156Z,9.29
2023-02-13T05:13:24.080Z,9.27
2023-02-13T05:15:26.374Z,9.28
2023-02-13T05:17:28.468Z,9.14
2023-02-13T05:19:30.475Z,9.16
2023-02-13T05:21:35.536Z,9.04
2023-02-13T05:23:37.624Z,9.05
2023-02-13T05:25:41.831Z,9.06
2023-02-13T05:27:43.781Z,8.99
2023-02-13T05:29:45.737Z,9.07
2023-02-13T05:31:49.043Z,9.07
2023-02-13T05:33:51.048Z,9.10
2023-02-13T05:35:53.176Z,9.11
2023-02-13T05:37:55.103Z,9.14
2023-02-13T05:39:56.996Z,9.11
2023-02-13T05:41:59.698Z,9.10
2023-02-13T05:44:01.835Z,9.07
2023-02-13T05:46:05.637Z,9.05
2023-02-13T05:48:07.750Z,9.18
2023-02-13T05:50:10.414Z,9.04
2023-02-13T05:52:12.411Z,9.10
2023-02-13T05:54:14.642Z,9.09
2023-02-13T05:56:16.616Z,9.02
2023-02-13T05:58:20.390Z,9.06
2023-02-13T06:00:22.599Z,8.93
2023-02-13T06:02:24.772Z,9.10
2023-02-13T06:04:27.012Z,9.07
2023-02-13T06:06:29.092Z,8.97
2023-02-13T06:08:31.024Z,8.99
2023-02-13T06:10:32.919Z,9.08
2023-02-13T06:12:34.846Z,9.07
2023-02-13T06:14:36.808Z,9.04
2023-02-13T06:16:38.792Z,9.08
2023-02-13T06:18:40.998Z,9.06
2023-02-13T06:20:43.370Z,9.02
2023-02-13T06:22:49.007Z,9.02
2023-02-13T06:24:52.365Z,8.90
2023-02-13T06:26:54.422Z,8.99
2023-02-13T06:28:56.476Z,8.84
2023-02-13T06:30:58.903Z,8.80
2023-02-13T06:33:01.505Z,8.74
2023-02-13T06:35:05.468Z,8.78
2023-02-13T06:37:07.788Z,8.88
2023-02-13T06:39:12.431Z,8.71
2023-02-13T06:41:14.341Z,8.72
2023-02-13T06:43:17.883Z,8.84
2023-02-13T06:45:19.940Z,8.76
2023-02-13T06:47:21.955Z,8.77
2023-02-13T06:49:23.921Z,8.75
2023-02-13T06:51:25.928Z,8.75
2023-02-13T06:53:28.669Z,8.70
2023-02-13T06:55:30.737Z,8.73
2023-02-13T06:57:34.054Z,8.71
2023-02-13T06:59:36.008Z,8.82
2023-02-13T07:01:37.954Z,8.83
2023-02-13T07:03:40.070Z,8.71
2023-02-13T07:05:42.660Z,8.76
2023-02-13T07:07:44.860Z,8.72
2023-02-13T07:09:46.806Z,8.67
2023-02-13T07:11:48.838Z,8.75
2023-02-13T07:13:51.530Z,8.72
2023-02-13T07:15:53.529Z,8.68
2023-02-13T07:17:59.059Z,8.63
2023-02-13T07:20:01.211Z,8.73
2023-02-13T07:22:03.303Z,8.79
2023-02-13T07:24:07.960Z,8.71
2023-02-13T07:26:11.397Z,8.77
2023-02-13T07:28:13.714Z,8.78
2023-02-13T07:30:16.088Z,8.85
2023-02-13T07:32:18.078Z,8.72
2023-02-13T07:34:20.172Z,8.84
2023-02-13T07:36:22.178Z,8.67
2023-02-13T07:38:24.147Z,8.62
2023-02-13T07:40:26.210Z,8.71
2023-02-13T07:42:28.252Z,8.83
2023-02-13T07:44:30.708Z,8.75
2023-02-13T07:46:32.761Z,8.80
2023-02-13T07:48:34.896Z,8.68
2023-02-13T07:50:36.896Z,8.57
2023-02-13T07:52:39.119Z,8.67
2023-02-13T07:54:47.796Z,8.64
2023-02-13T07:56:50.002Z,8.76
2023-02-13T07:58:52.141Z,8.76
2023-02-13T08:00:54.155Z,8.61
2023-02-13T08:02:58.777Z,8.55
2023-02-13T08:05:00.861Z,8.61
2023-02-13T08:07:03.047Z,8.38
2023-02-13T08:09:08.216Z,8.47
2023-02-13T08:11:26.760Z,8.53
2023-02-13T08:13:29.362Z,8.52
2023-02-13T08:15:31.732Z,8.49
2023-02-13T08:17:33.768Z,8.49
2023-02-13T08:19:36.294Z,8.53
2023-02-13T08:21:38.416Z,8.64
2023-02-13T08:23:40.846Z,8.70
2023-02-13T08:25:43.079Z,8.70
2023-02-13T08:27:45.124Z,8.65
2023-02-13T08:29:49.297Z,8.60
2023-02-13T08:31:51.478Z,8.60
2023-02-13T08:33:53.620Z,8.61
2023-02-13T08:35:55.807Z,8.58
2023-02-13T08:38:01.615Z,8.51
2023-02-13T08:40:04.074Z,8.56
2023-02-13T08:42:06.164Z,8.51
2023-02-13T08:44:08.214Z,8.51
2023-02-13T08:46:10.753Z,8.57
2023-02-13T08:48:12.894Z,8.49
2023-02-13T08:50:15.094Z,8.54
2023-02-13T08:52:17.293Z,8.54
2023-02-13T08:54:19.354Z,8.56
2023-02-13T08:56:21.466Z,8.54
2023-02-13T08:58:24.281Z,8.66
2023-02-13T09:00:26.392Z,8.60
2023-02-13T09:02:28.537Z,8.65
2023-02-13T09:04:30.667Z,8.82
2023-02-13T09:06:32.771Z,8.85
2023-02-13T09:08:36.305Z,8.84
2023-02-13T09:10:39.399Z,8.91
2023-02-13T09:12:41.450Z,8.86
2023-02-13T09:14:43.611Z,8.92
2023-02-13T09:16:45.712Z,8.91
2023-02-13T09:18:48.817Z,8.97
2023-02-13T09:20:50.913Z,9.00
2023-02-13T09:22:54.977Z,8.94
2023-02-13T09:24:58.356Z,8.99
2023-02-13T09:27:00.523Z,9.04
2023-02-13T09:29:02.769Z,9.16
2023-02-13T09:31:10.024Z,9.06
2023-02-13T09:33:13.328Z,9.09
2023-02-13T09:35:16.569Z,9.30
2023-02-13T09:37:19.133Z,9.37
2023-02-13T09:39:21.337Z,9.40
2023-02-13T09:41:28.887Z,9.46
2023-02-13T09:43:34.377Z,9.63
2023-02-13T09:45:37.472Z,9.57
2023-02-13T09:47:43.805Z,9.54
2023-02-13T09:49:53.014Z,9.52
2023-02-13T09:51:57.681Z,9.70
2023-02-13T09:54:03.799Z,9.65
2023-02-13T09:56:10.862Z,9.71
2023-02-13T09:58:24.936Z,9.74
2023-02-13T10:00:34.806Z,9.73
2023-02-13T10:02:44.341Z,9.92
2023-02-13T10:04:48.193Z,9.87
2023-02-13T10:06:58.899Z,10.02
2023-02-13T10:09:09.652Z,9.92
2023-02-13T10:11:18.064Z,9.95
2023-02-13T10:13:26.353Z,9.95
2023-02-13T10:15:34.480Z,10.00
2023-02-13T10:17:41.964Z,10.07
2023-02-13T10:19:50.721Z,10.21
2023-02-13T10:21:58.384Z,10.30
2023-02-13T10:24:06.695Z,10.35
2023-02-13T10:26:20.113Z,10.36
2023-02-13T10:28:30.614Z,10.35
2023-02-13T10:30:37.226Z,10.50
2023-02-13T10:32:44.184Z,10.53
2023-02-13T10:34:47.399Z,10.62
2023-02-13T10:36:49.609Z,10.67
2023-02-13T10:38:56.147Z,10.79
2023-02-13T10:40:58.939Z,10.74
2023-02-13T10:43:07.418Z,10.87
2023-02-13T10:45:17.695Z,10.76
2023-02-13T10:47:34.447Z,10.97
2023-02-13T10:49:42.666Z,11.06
2023-02-13T10:51:55.493Z,11.23
2023-02-13T10:54:06.799Z,11.23
2023-02-13T10:56:12.861Z,11.26
2023-02-13T10:58:15.761Z,11.33
2023-02-13T11:00:23.101Z,11.35
2023-02-13T11:02:28.790Z,11.38
2023-02-13T11:04:31.223Z,11.26
2023-02-13T11:06:36.682Z,11.19
2023-02-13T11:08:43.832Z,11.32
2023-02-13T11:10:46.162Z,11.38
2023-02-13T11:12:49.330Z,11.40
2023-02-13T11:14:57.568Z,11.45
2023-02-13T11:17:04.476Z,11.38
2023-02-13T11:19:06.735Z,11.52
2023-02-13T11:21:15.282Z,11.73
2023-02-13T11:23:24.131Z,11.73
2023-02-13T11:25:31.439Z,11.93
2023-02-13T11:27:37.317Z,11.99
2023-02-13T11:29:54.194Z,12.14
2023-02-13T11:32:02.646Z,12.13
2023-02-13T11:34:10.887Z,12.12
2023-02-13T11:36:18.021Z,12.09
2023-02-13T11:38:23.572Z,12.24
2023-02-13T11:40:31.817Z,12.23
2023-02-13T11:42:37.243Z,12.35
2023-02-13T11:44:41.649Z,12.54
2023-02-13T11:46:48.403Z,12.63
2023-02-13T11:48:56.668Z,12.70
2023-02-13T11:50:59.135Z,12.56
2023-02-13T11:53:07.751Z,12.72
2023-02-13T11:55:15.995Z,12.71
2023-02-13T11:57:21.512Z,12.71
2023-02-13T11:59:25.658Z,12.98
2023-02-13T12:01:29.294Z,13.08
2023-02-13T12:03:32.441Z,13.12
2023-02-13T12:05:34.681Z,13.22
2023-02-13T12:07:36.883Z,13.27
2023-02-13T12:09:41.630Z,13.45
2023-02-13T12:11:49.017Z,13.55
2023-02-13T12:13:52.299Z,13.49
2023-02-13T12:16:02.888Z,13.56
2023-02-13T12:18:09.481Z,13.54
2023-02-13T12:20:16.446Z,13.70
2023-02-13T12:22:24.753Z,13.74
2023-02-13T12:24:30.349Z,13.79
2023-02-13T12:26:37.282Z,13.83
2023-02-13T12:28:55.449Z,13.90
2023-02-13T12:31:05.848Z,13.82
2023-02-13T12:33:11.494Z,13.99
2023-02-13T12:35:28.972Z,13.79
2023-02-13T12:37:34.452Z,14.00
2023-02-13T12:39:45.213Z,14.08
2023-02-13T12:41:48.417Z,14.14
2023-02-13T12:43:56.600Z,14.22
2023-02-13T12:46:04.104Z,14.24
2023-02-13T12:48:09.733Z,14.33
2023-02-13T12:50:21.167Z,14.35
2023-02-13T12:52:29.335Z,14.38
2023-02-13T12:54:33.233Z,14.34
2023-02-13T12:56:42.013Z,14.50
2023-02-13T12:58:45.951Z,14.58
2023-02-13T13:00:49.299Z,14.79
2023-02-13T13:02:57.565Z,14.83
2023-02-13T13:05:06.301Z,14.81
2023-02-13T13:07:20.480Z,14.85
2023-02-13T13:09:27.041Z,14.88
2023-02-13T13:11:38.423Z,14.76
2023-02-13T13:13:49.350Z,14.73
2023-02-13T13:15:55.532Z,14.94
2023-02-13T13:18:01.125Z,15.02
2023-02-13T13:20:09.377Z,15.02
2023-02-13T13:22:20.285Z,15.09
2023-02-13T13:24:26.946Z,15.14
2023-02-13T13:26:34.127Z,15.18
2023-02-13T13:28:41.879Z,15.19
2023-02-13T13:30:44.442Z,15.40
2023-02-13T13:32:52.559Z,15.35
2023-02-13T13:34:56.400Z,15.23
2023-02-13T13:37:02.041Z,15.23
2023-02-13T13:39:16.477Z,15.25
2023-02-13T13:41:30.197Z,15.39
2023-02-13T13:43:39.812Z,15.48
2023-02-13T13:45:48.217Z,15.47
2023-02-13T13:47:54.862Z,15.49
2023-02-13T13:50:00.117Z,15.50
2023-02-13T13:52:08.369Z,15.39
2023-02-13T13:54:11.235Z,15.50
2023-02-13T13:56:13.577Z,15.37
2023-02-13T13:58:21.868Z,15.51
2023-02-13T14:00:28.182Z,15.42
2023-02-13T14:02:34.837Z,15.47
2023-02-13T14:04:41.779Z,15.61
2023-02-13T14:06:44.576Z,15.69
2023-02-13T14:08:47.696Z,15.54
2023-02-13T14:10:50.556Z,15.38
2023-02-13T14:12:56.095Z,15.46
2023-02-13T14:15:00.207Z,15.58
2023-02-13T14:17:02.757Z,15.76
2023-02-13T14:19:06.270Z,15.80
2023-02-13T14:21:08.534Z,15.57
2023-02-13T14:23:14.228Z,15.72
2023-02-13T14:25:22.773Z,15.73
2023-02-13T14:27:30.207Z,15.68
2023-02-13T14:29:33.992Z,15.71
2023-02-13T14:31:40.289Z,15.82
2023-02-13T14:33:43.015Z,15.71
2023-02-13T14:35:45.149Z,15.82
2023-02-13T14:37:52.046Z,15.87
2023-02-13T14:40:09.636Z,15.84
2023-02-13T14:42:17.939Z,15.74
2023-02-13T14:44:23.448Z,15.83
2023-02-13T14:46:31.779Z,15.94
2023-02-13T14:48:40.368Z,16.02
2023-02-13T14:50:49.253Z,16.09
2023-02-13T14:52:52.735Z,16.09
2023-02-13T14:55:01.021Z,16.02
2023-02-13T14:57:09.580Z,16.07
2023-02-13T14:59:17.978Z,15.95
2023-02-13T15:01:28.530Z,15.99
2023-02-13T15:03:38.688Z,16.19
2023-02-13T15:05:41.757Z,16.08
2023-02-13T15:07:49.300Z,16.17
2023-02-13T15:09:56.216Z,16.19
2023-02-13T15:11:59.279Z,16.10
2023-02-13T15:14:17.493Z,16.12
2023-02-13T15:16:19.715Z,16.10
2023-02-13T15:18:26.276Z,16.01
2023-02-13T15:20:33.250Z,16.06
2023-02-13T15:22:38.842Z,16.15
2023-02-13T15:24:46.369Z,16.10
2023-02-13T15:26:54.971Z,16.15
2023-02-13T15:28:59.655Z,16.22
2023-02-13T15:31:05.621Z,16.07
2023-02-13T15:33:12.214Z,16.12
2023-02-13T15:35:26.055Z,16.14
2023-02-13T15:37:30.648Z,16.14
2023-02-13T15:39:32.995Z,16.15
2023-02-13T15:41:39.055Z,15.87
2023-02-13T15:43:44.566Z,15.90
2023-02-13T15:45:46.771Z,15.79
2023-02-13T15:47:50.214Z,15.79
2023-02-13T15:49:52.594Z,15.74
2023-02-13T15:52:00.929Z,15.70
2023-02-13T15:54:06.074Z,15.67
2023-02-13T15:56:15.351Z,15.61
2023-02-13T15:58:17.487Z,15.48
2023-02-13T16:00:25.637Z,15.44
2023-02-13T16:02:33.980Z,15.39
2023-02-13T16:04:36.529Z,15.52
2023-02-13T16:06:39.191Z,15.47
2023-02-13T16:08:45.555Z,15.38
2023-02-13T16:10:47.962Z,15.22
2023-02-13T16:12:50.095Z,15.21
2023-02-13T16:14:55.469Z,15.20
2023-02-13T16:17:03.163Z,15.08
2023-02-13T16:19:05.391Z,15.02
2023-02-13T16:21:09.305Z,14.93
2023-02-13T16:23:17.689Z,15.03
2023-02-13T16:25:25.487Z,14.97
2023-02-13T16:27:28.822Z,14.99
2023-02-13T16:29:31.120Z,14.92
2023-02-13T16:31:33.454Z,14.87
2023-02-13T16:33:41.656Z,14.86
2023-02-13T16:35:49.294Z,14.79
2023-02-13T16:37:56.453Z,14.70
2023-02-13T16:40:20.357Z,14.71
2023-02-13T16:42:22.874Z,14.68
2023-02-13T16:44:30.270Z,14.72
2023-02-13T16:46:33.935Z,14.71
2023-02-13T16:48:36.588Z,14.64
2023-02-13T16:50:38.751Z,14.64
2023-02-13T16:52:41.088Z,14.55
2023-02-13T16:54:48.105Z,14.54
2023-02-13T16:56:52.642Z,14.53
2023-02-13T16:59:00.890Z,14.50
2023-02-13T17:01:04.939Z,14.41
2023-02-13T17:03:09.713Z,14.44
2023-02-13T17:05:12.460Z,14.47
2023-02-13T17:07:18.146Z,14.44
2023-02-13T17:09:20.557Z,14.37
2023-02-13T17:11:22.874Z,14.42
2023-02-13T17:13:25.682Z,14.31
2023-02-13T17:15:30.156Z,14.21
2023-02-13T17:17:33.060Z,14.15
2023-02-13T17:19:35.201Z,14.09
2023-02-13T17:21:37.575Z,14.10
2023-02-13T17:23:40.434Z,14.11
2023-02-13T17:25:43.742Z,14.08
2023-02-13T17:27:45.801Z,14.02
2023-02-13T17:29:48.006Z,14.04
2023-02-13T17:31:55.787Z,13.93
2023-02-13T17:33:57.953Z,13.96
2023-02-13T17:36:00.083Z,13.95
2023-02-13T17:38:02.532Z,13.91
2023-02-13T17:40:05.343Z,13.91
2023-02-13T17:42:15.309Z,13.84
2023-02-13T17:44:17.532Z,13.77
2023-02-13T17:46:19.879Z,13.74
2023-02-13T17:48:22.013Z,13.65
2023-02-13T17:50:25.223Z,13.76
2023-02-13T17:52:29.150Z,13.69
2023-02-13T17:54:33.218Z,13.66
2023-02-13T17:56:35.406Z,13.62
2023-02-13T17:58:37.521Z,13.62
2023-02-13T18:00:39.713Z,13.62
2023-02-13T18:02:42.785Z,13.44
2023-02-13T18:04:45.370Z,13.45
2023-02-13T18:06:51.927Z,13.40
2023-02-13T18:08:53.968Z,13.27
2023-02-13T18:10:56.410Z,13.17
2023-02-13T18:13:04.514Z,13.16
2023-02-13T18:15:07.249Z,13.15
2023-02-13T18:17:10.607Z,13.14
2023-02-13T18:19:14.137Z,13.03
2023-02-13T18:21:16.270Z,12.98
2023-02-13T18:23:18.414Z,13.01
2023-02-13T18:25:21.445Z,12.94
2023-02-13T18:27:25.537Z,12.99
2023-02-13T18:29:27.947Z,12.92
2023-02-13T18:31:30.488Z,12.96
2023-02-13T18:33:32.868Z,12.93
2023-02-13T18:35:36.726Z,12.96
2023-02-13T18:37:39.448Z,12.92
2023-02-13T18:39:41.554Z,12.85
2023-02-13T18:41:43.989Z,12.76
2023-02-13T18:43:46.204Z,12.76
2023-02-13T18:45:48.552Z,12.73
2023-02-13T18:47:50.650Z,12.62
2023-02-13T18:49:52.817Z,12.58
2023-02-13T18:51:54.893Z,12.55
2023-02-13T18:53:57.349Z,12.54
2023-02-13T18:56:01.477Z,12.46
2023-02-13T18:58:03.646Z,12.32
2023-02-13T19:00:07.418Z,12.43
2023-02-13T19:02:10.780Z,12.22
2023-02-13T19:04:12.974Z,12.27
2023-02-13T19:06:19.306Z,12.19
2023-02-13T19:08:21.331Z,12.22
2023-02-13T19:10:23.490Z,12.14
2023-02-13T19:12:25.515Z,12.24
2023-02-13T19:14:27.557Z,12.18
2023-02-13T19:16:31.372Z,12.19
2023-02-13T19:18:37.191Z,12.17
2023-02-13T19:20:41.452Z,11.99
2023-02-13T19:22:43.493Z,12.04
2023-02-13T19:24:45.545Z,12.04
2023-02-13T19:26:47.717Z,12.03
2023-02-13T19:28:50.677Z,11.94
2023-02-13T19:30:52.803Z,11.85
2023-02-13T19:32:55.090Z,11.77
2023-02-13T19:34:57.056Z,11.79
2023-02-13T19:36:59.079Z,11.69
2023-02-13T19:39:04.018Z,11.61
2023-02-13T19:41:08.382Z,11.63
2023-02-13T19:43:10.913Z,11.54
2023-02-13T19:45:12.992Z,11.56
2023-02-13T19:47:15.026Z,11.58
2023-02-13T19:49:17.085Z,11.57
2023-02-13T19:51:21.660Z,11.62
2023-02-13T19:53:23.665Z,11.67
2023-02-13T19:55:27.318Z,11.64
2023-02-13T19:57:29.316Z,11.60
2023-02-13T19:59:32.837Z,11.66
2023-02-13T20:01:34.994Z,11.57
2023-02-13T20:03:37.040Z,11.61
2023-02-13T20:05:40.101Z,11.63
2023-02-13T20:07:42.235Z,11.49
2023-02-13T20:09:44.248Z,11.52
2023-02-13T20:11:46.424Z,11.40
2023-02-13T20:13:52.840Z,11.33
2023-02-13T20:15:55.364Z,11.30
2023-02-13T20:17:57.461Z,11.32
2023-02-13T20:19:59.559Z,11.22
2023-02-13T20:22:01.921Z,11.17
2023-02-13T20:24:05.059Z,11.28
2023-02-13T20:26:11.174Z,11.19
2023-02-13T20:28:13.200Z,11.25
2023-02-13T20:30:16.742Z,11.11
2023-02-13T20:32:18.845Z,11.20
2023-02-13T20:34:20.913Z,11.17
2023-02-13T20:36:25.613Z,11.24
2023-02-13T20:38:27.532Z,11.21
2023-02-13T20:40:29.582Z,11.12
2023-02-13T20:42:33.852Z,11.11
2023-02-13T20:44:36.030Z,11.11
2023-02-13T20:46:39.923Z,11.03
2023-02-13T20:48:43.516Z,10.93
2023-02-13T20:50:45.680Z,10.92
2023-02-13T20:52:47.807Z,10.99
2023-02-13T20:54:49.845Z,11.02
2023-02-13T20:56:51.955Z,11.06
2023-02-13T20:58:57.846Z,11.06
2023-02-13T21:01:02.208Z,10.98
2023-02-13T21:03:06.620Z,10.91
2023-02-13T21:05:09.557Z,10.89
2023-02-13T21:07:11.847Z,10.87
2023-02-13T21:09:15.515Z,10.86
2023-02-13T21:11:21.295Z,10.88
2023-02-13T21:13:26.597Z,10.84
2023-02-13T21:15:30.833Z,10.77
2023-02-13T21:17:35.087Z,10.91
2023-02-13T21:19:39.007Z,11.03
2023-02-13T21:21:46.227Z,10.96
2023-02-13T21:23:53.650Z,10.88
2023-02-13T21:25:58.929Z,10.79
2023-02-13T21:28:04.258Z,10.72
2023-02-13T21:30:08.052Z,10.82
2023-02-13T21:32:11.588Z,10.90
2023-02-13T21:34:16.540Z,10.95
2023-02-13T21:36:20.909Z,10.86
2023-02-13T21:38:24.343Z,10.86
2023-02-13T21:40:26.569Z,10.93
2023-02-13T21:42:28.610Z,10.97
2023-02-13T21:44:30.614Z,10.99
2023-02-13T21:46:33.566Z,10.97
2023-02-13T21:48:35.600Z,10.93
2023-02-13T21:50:38.208Z,10.79
2023-02-13T21:52:40.375Z,10.86
2023-02-13T21:54:43.539Z,10.83
2023-02-13T21:56:45.680Z,10.82
2023-02-13T21:58:48.247Z,10.75
2023-02-13T22:00:50.395Z,10.79
2023-02-13T22:02:52.479Z,10.78
2023-02-13T22:04:54.592Z,10.83
2023-02-13T22:06:56.646Z,10.83
2023-02-13T22:09:01.661Z,10.80
2023-02-13T22:11:04.139Z,10.84
2023-02-13T22:13:07.386Z,10.74
2023-02-13T22:15:10.420Z,10.76
2023-02-13T22:17:12.500Z,10.81
2023-02-13T22:19:16.177Z,10.88
2023-02-13T22:21:20.469Z,10.84
2023-02-13T22:23:22.364Z,10.83
2023-02-13T22:25:24.248Z,10.88
2023-02-13T22:27:43.468Z,10.87
2023-02-13T22:29:48.335Z,10.79
2023-02-13T22:31:50.693Z,10.80
2023-02-13T22:34:03.360Z,10.73
2023-02-13T22:36:06.604Z,10.81
2023-02-13T22:38:08.903Z,10.67
2023-02-13T22:40:11.609Z,10.77
2023-02-13T22:42:14.375Z,10.68
2023-02-13T22:44:16.664Z,10.63
2023-02-13T22:46:23.080Z,10.69
2023-02-13T22:48:24.930Z,10.57
2023-02-13T22:50:26.762Z,10.51
2023-02-13T22:52:28.951Z,10.57
2023-02-13T22:54:31.564Z,10.37
2023-02-13T22:56:34.568Z,10.45
2023-02-13T22:58:36.693Z,10.53
2023-02-13T23:00:39.470Z,10.50
2023-02-13T23:02:41.525Z,10.51
2023-02-13T23:04:47.618Z,10.49
2023-02-13T23:06:50.146Z,10.42
2023-02-13T23:08:53.754Z,10.41
2023-02-13T23:10:59.457Z,10.29
2023-02-13T23:13:01.964Z,10.36
2023-02-13T23:15:08.638Z,10.41
2023-02-13T23:17:14.126Z,10.34
2023-02-13T23:19:16.240Z,10.39
2023-02-13T23:21:18.717Z,10.36
2023-02-13T23:23:21.386Z,10.37
2023-02-13T23:25:25.926Z,10.40
2023-02-13T23:27:28.766Z,10.35
2023-02-13T23:29:30.888Z,10.44
2023-02-13T23:31:34.553Z,10.42
2023-02-13T23:33:36.594Z,10.40
2023-02-13T23:35:38.565Z,10.46
2023-02-13T23:37:40.747Z,10.38
2023-02-13T23:39:42.894Z,10.33
2023-02-13T23:41:45.070Z,10.32
2023-02-13T23:43:47.044Z,10.40
2023-02-13T23:45:50.054Z,10.31
2023-02-13T23:47:52.355Z,10.25
2023-02-13T23:49:54.304Z,10.18
2023-02-13T23:51:57.305Z,10.22
2023-02-13T23:54:00.619Z,10.21
2023-02-13T23:56:03.628Z,10.25
2023-02-13T23:58:05.646Z,10.17
